createdAt,value
2017-10-26T00:00:45.491Z,10.95
2017-10-26T00:03:11.540Z,10.98
2017-10-26T00:05:37.633Z,10.98
2017-10-26T00:08:03.728Z,11.02
2017-10-26T00:10:29.782Z,11.06
2017-10-26T00:12:55.902Z,11.05
2017-10-26T00:15:21.983Z,11.12
2017-10-26T00:17:48.031Z,11.16
2017-10-26T00:20:14.175Z,11.27
2017-10-26T00:22:40.253Z,11.27
2017-10-26T00:25:06.338Z,11.25
2017-10-26T00:27:32.438Z,11.13
2017-10-26T00:29:58.510Z,10.84
2017-10-26T00:32:24.591Z,11.09
2017-10-26T00:34:50.983Z,11.17
2017-10-26T00:37:17.098Z,11.16
2017-10-26T00:39:43.167Z,10.95
2017-10-26T00:42:09.551Z,10.82
2017-10-26T00:44:35.591Z,10.75
2017-10-26T00:47:01.636Z,10.93
2017-10-26T00:49:27.742Z,11.08
2017-10-26T00:51:53.772Z,11.12
2017-10-26T00:54:19.909Z,11.07
2017-10-26T00:56:46.022Z,11.06
2017-10-26T00:59:12.071Z,11.14
2017-10-26T01:01:38.114Z,10.98
2017-10-26T01:04:04.506Z,10.78
2017-10-26T01:06:30.586Z,10.74
2017-10-26T01:08:56.705Z,10.75
2017-10-26T01:11:22.839Z,10.75
2017-10-26T01:13:48.855Z,10.92
2017-10-26T01:16:14.932Z,11.12
2017-10-26T01:18:41.012Z,11.24
2017-10-26T01:21:07.090Z,11.36
2017-10-26T01:23:33.131Z,11.26
2017-10-26T01:25:59.270Z,11.21
2017-10-26T01:28:25.335Z,11.34
2017-10-26T01:30:51.375Z,11.38
2017-10-26T01:33:17.430Z,11.30
2017-10-26T01:35:43.510Z,11.44
2017-10-26T01:38:09.541Z,11.44
2017-10-26T01:40:35.586Z,11.46
2017-10-26T01:43:01.698Z,11.36
2017-10-26T01:45:27.774Z,11.41
2017-10-26T01:47:53.866Z,11.46
2017-10-26T01:50:19.934Z,11.53
2017-10-26T01:52:45.979Z,11.57
2017-10-26T01:55:12.023Z,11.46
2017-10-26T01:57:38.044Z,11.34
2017-10-26T02:00:04.117Z,11.38
2017-10-26T02:02:30.212Z,11.43
2017-10-26T02:04:56.247Z,11.46
2017-10-26T02:07:22.323Z,11.48
2017-10-26T02:09:48.376Z,11.55
2017-10-26T02:12:14.482Z,11.46
2017-10-26T02:14:40.543Z,11.45
2017-10-26T02:17:06.550Z,11.38
2017-10-26T02:19:32.643Z,11.27
2017-10-26T02:21:58.658Z,11.14
2017-10-26T02:24:24.726Z,11.08
2017-10-26T02:26:50.789Z,11.07
2017-10-26T02:29:29.065Z,11.12
2017-10-26T02:31:55.159Z,11.15
2017-10-26T02:34:21.263Z,11.17
2017-10-26T02:36:47.362Z,11.19
2017-10-26T02:39:13.538Z,11.19
2017-10-26T02:41:39.638Z,11.18
2017-10-26T02:44:05.718Z,11.18
2017-10-26T02:46:31.808Z,11.21
2017-10-26T02:48:57.953Z,11.21
2017-10-26T02:51:24.068Z,11.22
2017-10-26T02:53:50.184Z,11.21
2017-10-26T02:56:16.294Z,11.23
2017-10-26T02:58:42.325Z,11.23
2017-10-26T03:01:08.410Z,11.32
2017-10-26T03:03:34.473Z,11.30
2017-10-26T03:06:00.564Z,11.31
2017-10-26T03:08:26.687Z,11.30
2017-10-26T03:10:52.790Z,11.37
2017-10-26T03:13:18.817Z,11.39
2017-10-26T03:15:44.843Z,11.37
2017-10-26T03:18:10.959Z,11.38
2017-10-26T03:20:37.023Z,11.37
2017-10-26T03:23:03.119Z,11.39
2017-10-26T03:25:29.178Z,11.40
2017-10-26T03:27:55.262Z,11.45
2017-10-26T03:30:21.415Z,11.46
2017-10-26T03:32:47.519Z,11.46
2017-10-26T03:35:13.600Z,11.49
2017-10-26T03:37:39.679Z,11.48
2017-10-26T03:40:05.768Z,11.45
2017-10-26T03:42:31.831Z,11.43
2017-10-26T03:44:57.917Z,11.45
2017-10-26T03:47:23.991Z,11.43
2017-10-26T03:49:50.110Z,11.39
2017-10-26T03:52:16.194Z,11.39
2017-10-26T03:54:42.272Z,11.45
2017-10-26T03:57:08.427Z,11.49
2017-10-26T03:59:34.533Z,11.54
2017-10-26T04:02:00.680Z,11.73
2017-10-26T04:04:26.759Z,11.82
2017-10-26T04:06:52.846Z,11.86
2017-10-26T04:09:18.884Z,11.95
2017-10-26T04:11:45.073Z,11.97
2017-10-26T04:14:11.149Z,11.99
2017-10-26T04:16:37.227Z,11.98
2017-10-26T04:19:03.286Z,12.00
2017-10-26T04:21:29.366Z,11.93
2017-10-26T04:23:55.542Z,11.86
2017-10-26T04:26:21.699Z,11.94
2017-10-26T04:28:47.806Z,11.94
2017-10-26T04:31:13.846Z,11.90
2017-10-26T04:33:39.995Z,11.82
2017-10-26T04:36:06.078Z,11.86
2017-10-26T04:38:32.170Z,11.95
2017-10-26T04:40:58.268Z,11.93
2017-10-26T04:43:24.326Z,11.93
2017-10-26T04:45:50.419Z,11.94
2017-10-26T04:48:16.477Z,11.94
2017-10-26T04:50:42.988Z,11.89
2017-10-26T04:53:09.073Z,11.89
2017-10-26T04:55:35.225Z,11.90
2017-10-26T04:58:01.279Z,11.98
2017-10-26T05:00:27.389Z,12.00
2017-10-26T05:02:53.491Z,11.96
2017-10-26T05:05:19.572Z,11.99
2017-10-26T05:07:45.687Z,11.97
2017-10-26T05:10:11.781Z,11.96
2017-10-26T05:12:37.865Z,11.87
2017-10-26T05:15:03.951Z,11.86
2017-10-26T05:17:30.019Z,11.93
2017-10-26T05:19:56.118Z,11.95
2017-10-26T05:22:22.157Z,11.96
2017-10-26T05:24:48.240Z,11.97
2017-10-26T05:27:14.345Z,11.98
2017-10-26T05:29:40.418Z,11.94
2017-10-26T05:32:06.527Z,11.99
2017-10-26T05:34:32.589Z,11.94
2017-10-26T05:36:58.694Z,11.91
2017-10-26T05:39:24.682Z,11.96
2017-10-26T05:41:50.724Z,11.89
2017-10-26T05:44:17.107Z,11.68
2017-10-26T05:46:43.238Z,11.67
2017-10-26T05:49:09.369Z,11.82
2017-10-26T05:51:35.466Z,11.94
2017-10-26T05:54:01.563Z,11.92
2017-10-26T05:56:27.743Z,11.87
2017-10-26T05:58:53.814Z,11.80
2017-10-26T06:01:19.938Z,11.85
2017-10-26T06:03:46.030Z,11.86
2017-10-26T06:06:12.107Z,11.82
2017-10-26T06:08:38.218Z,11.85
2017-10-26T06:11:04.333Z,11.84
2017-10-26T06:13:30.434Z,11.83
2017-10-26T06:15:56.510Z,11.80
2017-10-26T06:18:22.958Z,11.81
2017-10-26T06:20:49.119Z,11.81
2017-10-26T06:23:15.251Z,11.84
2017-10-26T06:25:41.358Z,11.84
2017-10-26T06:28:07.442Z,11.87
2017-10-26T06:30:33.536Z,11.87
2017-10-26T06:32:59.618Z,11.87
2017-10-26T06:35:25.705Z,11.89
2017-10-26T06:37:51.862Z,11.91
2017-10-26T06:40:17.976Z,11.87
2017-10-26T06:42:44.068Z,11.78
2017-10-26T06:45:10.218Z,11.66
2017-10-26T06:47:36.577Z,11.67
2017-10-26T06:50:02.691Z,11.60
2017-10-26T06:52:28.760Z,11.55
2017-10-26T06:54:54.890Z,11.57
2017-10-26T06:57:20.985Z,11.66
2017-10-26T06:59:47.132Z,11.86
2017-10-26T07:02:13.221Z,11.97
2017-10-26T07:04:39.395Z,11.98
2017-10-26T07:07:05.432Z,12.01
2017-10-26T07:09:31.527Z,11.98
2017-10-26T07:11:57.563Z,12.02
2017-10-26T07:14:23.644Z,12.01
2017-10-26T07:16:49.720Z,11.81
2017-10-26T07:19:15.791Z,11.68
2017-10-26T07:21:42.229Z,11.67
2017-10-26T07:24:08.343Z,11.69
2017-10-26T07:26:34.462Z,11.76
2017-10-26T07:29:00.567Z,11.83
2017-10-26T07:31:26.645Z,11.85
2017-10-26T07:33:52.757Z,11.93
2017-10-26T07:36:18.822Z,12.05
2017-10-26T07:38:44.926Z,12.19
2017-10-26T07:41:11.078Z,12.34
2017-10-26T07:43:37.154Z,12.50
2017-10-26T07:46:03.311Z,12.55
2017-10-26T07:48:29.383Z,12.61
2017-10-26T07:50:55.474Z,12.63
2017-10-26T07:53:21.691Z,12.69
2017-10-26T07:55:47.759Z,12.76
2017-10-26T07:58:13.899Z,12.79
2017-10-26T08:00:39.935Z,12.80
2017-10-26T08:03:06.043Z,12.78
2017-10-26T08:05:32.172Z,12.76
2017-10-26T08:07:58.294Z,12.71
2017-10-26T08:10:24.418Z,12.74
2017-10-26T08:12:50.534Z,12.75
2017-10-26T08:15:16.606Z,12.74
2017-10-26T08:17:42.675Z,12.81
2017-10-26T08:20:08.722Z,12.80
2017-10-26T08:22:34.771Z,12.85
2017-10-26T08:25:00.885Z,12.88
2017-10-26T08:27:26.974Z,12.73
2017-10-26T08:29:53.055Z,12.87
2017-10-26T08:32:19.082Z,13.02
2017-10-26T08:34:45.191Z,13.00
2017-10-26T08:37:11.358Z,13.02
2017-10-26T08:39:37.448Z,13.04
2017-10-26T08:42:03.547Z,13.17
2017-10-26T08:44:29.596Z,13.19
2017-10-26T08:46:55.714Z,13.36
2017-10-26T08:49:21.776Z,13.39
2017-10-26T08:51:47.899Z,13.41
2017-10-26T08:54:13.983Z,13.48
2017-10-26T08:56:40.028Z,13.46
2017-10-26T08:59:06.140Z,13.44
2017-10-26T09:01:32.258Z,13.49
2017-10-26T09:03:58.369Z,13.55
2017-10-26T09:06:24.428Z,13.68
2017-10-26T09:08:50.518Z,13.70
2017-10-26T09:11:16.651Z,13.76
2017-10-26T09:13:42.722Z,13.85
2017-10-26T09:16:08.791Z,13.94
2017-10-26T09:18:34.874Z,13.98
2017-10-26T09:21:00.934Z,14.06
2017-10-26T09:23:27.017Z,14.04
2017-10-26T09:25:53.111Z,13.98
2017-10-26T09:28:19.202Z,14.00
2017-10-26T09:30:45.295Z,13.99
2017-10-26T09:33:17.375Z,14.21
2017-10-26T09:35:43.478Z,14.27
2017-10-26T09:38:09.487Z,14.29
2017-10-26T09:40:35.586Z,14.33
2017-10-26T09:43:01.678Z,14.40
2017-10-26T09:45:27.734Z,14.54
2017-10-26T09:47:53.844Z,14.64
2017-10-26T09:50:19.978Z,14.63
2017-10-26T09:52:46.054Z,14.71
2017-10-26T09:55:12.090Z,14.69
2017-10-26T09:57:38.191Z,14.73
2017-10-26T10:00:04.219Z,14.81
2017-10-26T10:02:30.288Z,14.97
2017-10-26T10:04:56.350Z,15.13
2017-10-26T10:07:22.402Z,15.20
2017-10-26T10:09:48.458Z,15.26
2017-10-26T10:12:14.523Z,15.17
2017-10-26T10:14:40.597Z,15.24
2017-10-26T10:17:06.629Z,15.27
2017-10-26T10:19:32.715Z,15.19
2017-10-26T10:21:58.817Z,15.18
2017-10-26T10:24:24.933Z,15.52
2017-10-26T10:26:51.027Z,15.54
2017-10-26T10:29:17.094Z,15.46
2017-10-26T10:31:43.166Z,15.52
2017-10-26T10:34:09.286Z,15.57
2017-10-26T10:36:35.343Z,15.39
2017-10-26T10:39:01.407Z,15.18
2017-10-26T10:41:27.450Z,15.23
2017-10-26T10:43:53.570Z,15.29
2017-10-26T10:46:19.598Z,15.59
2017-10-26T10:48:45.688Z,15.64
2017-10-26T10:51:11.750Z,15.79
2017-10-26T10:53:37.903Z,15.89
2017-10-26T10:56:03.973Z,15.99
2017-10-26T10:58:30.109Z,16.12
2017-10-26T11:00:56.198Z,16.07
2017-10-26T11:03:22.256Z,15.72
2017-10-26T11:05:48.370Z,16.01
2017-10-26T11:08:14.383Z,16.04
2017-10-26T11:10:40.437Z,16.01
2017-10-26T11:13:06.513Z,15.99
2017-10-26T11:15:32.562Z,15.80
2017-10-26T11:17:58.667Z,15.69
2017-10-26T11:20:24.679Z,15.81
2017-10-26T11:22:50.792Z,15.86
2017-10-26T11:25:16.832Z,15.85
2017-10-26T11:27:42.854Z,15.82
2017-10-26T11:30:08.983Z,15.78
2017-10-26T11:32:35.018Z,15.66
2017-10-26T11:35:01.114Z,15.70
2017-10-26T11:37:27.187Z,15.45
2017-10-26T11:39:53.242Z,15.59
2017-10-26T11:42:19.268Z,15.49
2017-10-26T11:44:45.286Z,15.20
2017-10-26T11:47:11.330Z,15.45
2017-10-26T11:49:37.390Z,15.52
2017-10-26T11:52:03.473Z,15.45
2017-10-26T11:54:29.514Z,15.44
2017-10-26T11:56:55.607Z,15.35
2017-10-26T11:59:21.662Z,15.36
2017-10-26T12:01:47.766Z,15.34
2017-10-26T12:04:13.842Z,15.36
2017-10-26T12:06:39.894Z,15.39
2017-10-26T12:09:05.935Z,15.55
2017-10-26T12:11:31.964Z,15.60
2017-10-26T12:13:58.083Z,15.59
2017-10-26T12:16:24.178Z,16.09
2017-10-26T12:18:50.281Z,15.72
2017-10-26T12:21:16.355Z,15.65
2017-10-26T12:23:42.409Z,16.00
2017-10-26T12:26:08.514Z,16.32
2017-10-26T12:28:34.606Z,16.40
2017-10-26T12:31:00.697Z,16.24
2017-10-26T12:33:26.787Z,16.30
2017-10-26T12:35:52.859Z,16.09
2017-10-26T12:38:19.000Z,15.86
2017-10-26T12:40:45.071Z,15.72
2017-10-26T12:43:11.166Z,15.77
2017-10-26T12:45:37.176Z,15.72
2017-10-26T12:48:03.200Z,15.86
2017-10-26T12:50:29.248Z,15.79
2017-10-26T12:52:56.206Z,15.99
2017-10-26T12:55:22.307Z,16.67
2017-10-26T12:57:48.346Z,16.90
2017-10-26T13:00:14.387Z,16.17
2017-10-26T13:02:40.470Z,16.00
2017-10-26T13:05:06.554Z,15.93
2017-10-26T13:07:32.657Z,15.77
2017-10-26T13:09:58.730Z,15.66
2017-10-26T13:12:25.155Z,15.47
2017-10-26T13:14:51.197Z,15.44
2017-10-26T13:17:17.227Z,15.43
2017-10-26T13:19:43.279Z,15.40
2017-10-26T13:22:09.376Z,15.40
2017-10-26T13:24:35.521Z,15.39
2017-10-26T13:27:01.571Z,15.42
2017-10-26T13:29:27.694Z,15.42
2017-10-26T13:31:53.881Z,15.43
2017-10-26T13:34:20.050Z,15.40
2017-10-26T13:36:46.163Z,15.47
2017-10-26T13:39:12.207Z,15.38
2017-10-26T13:41:38.342Z,15.29
2017-10-26T13:44:04.453Z,15.37
2017-10-26T13:46:30.464Z,15.35
2017-10-26T13:48:56.570Z,15.36
2017-10-26T13:51:22.674Z,15.39
2017-10-26T13:53:48.809Z,15.39
2017-10-26T13:56:14.914Z,15.41
2017-10-26T13:58:41.006Z,15.28
2017-10-26T14:01:07.068Z,15.21
2017-10-26T14:03:33.150Z,15.18
2017-10-26T14:05:59.650Z,15.14
2017-10-26T14:08:25.754Z,15.06
2017-10-26T14:10:51.819Z,15.05
2017-10-26T14:13:17.938Z,15.11
2017-10-26T14:15:44.075Z,15.05
2017-10-26T14:18:10.494Z,15.21
2017-10-26T14:20:36.544Z,15.15
2017-10-26T14:23:02.608Z,15.00
2017-10-26T14:25:28.694Z,14.94
2017-10-26T14:27:54.831Z,14.99
2017-10-26T14:30:21.299Z,15.01
2017-10-26T14:32:47.431Z,15.00
2017-10-26T14:35:13.551Z,14.97
2017-10-26T14:37:39.654Z,14.97
2017-10-26T14:40:05.738Z,14.86
2017-10-26T14:42:31.852Z,14.74
2017-10-26T14:44:57.947Z,14.71
2017-10-26T14:47:24.078Z,14.66
2017-10-26T14:49:50.154Z,14.59
2017-10-26T14:52:16.281Z,14.50
2017-10-26T14:54:42.370Z,14.45
2017-10-26T14:57:08.473Z,14.42
2017-10-26T14:59:34.554Z,14.35
2017-10-26T15:02:00.674Z,14.34
2017-10-26T15:04:26.733Z,14.28
2017-10-26T15:06:52.835Z,14.30
2017-10-26T15:09:18.987Z,14.27
2017-10-26T15:11:45.056Z,14.22
2017-10-26T15:14:11.193Z,14.22
2017-10-26T15:16:37.247Z,14.23
2017-10-26T15:19:03.339Z,14.18
2017-10-26T15:21:29.430Z,14.14
2017-10-26T15:23:55.467Z,14.15
2017-10-26T15:26:21.553Z,14.10
2017-10-26T15:28:47.698Z,14.11
2017-10-26T15:31:13.770Z,14.12
2017-10-26T15:33:46.983Z,14.11
2017-10-26T15:36:13.119Z,14.07
2017-10-26T15:38:39.203Z,14.05
2017-10-26T15:41:05.359Z,14.00
2017-10-26T15:43:31.451Z,14.00
2017-10-26T15:45:57.641Z,13.99
2017-10-26T15:48:23.750Z,14.01
2017-10-26T15:50:49.845Z,14.03
2017-10-26T15:53:15.891Z,14.03
2017-10-26T15:55:41.987Z,14.00
2017-10-26T16:00:34.451Z,13.98
2017-10-26T16:03:00.528Z,13.97
2017-10-26T16:05:26.639Z,13.95
2017-10-26T16:07:52.746Z,13.90
2017-10-26T16:10:18.837Z,13.86
2017-10-26T16:12:44.917Z,13.81
2017-10-26T16:15:11.040Z,13.81
2017-10-26T16:17:37.136Z,13.78
2017-10-26T16:20:03.235Z,13.77
2017-10-26T16:22:29.369Z,13.71
2017-10-26T16:24:55.486Z,13.68
2017-10-26T16:27:21.627Z,13.67
2017-10-26T16:29:47.741Z,13.66
2017-10-26T16:32:13.817Z,13.68
2017-10-26T16:34:39.869Z,13.61
2017-10-26T16:37:06.055Z,13.60
2017-10-26T16:39:32.190Z,13.57
2017-10-26T16:41:58.267Z,13.44
2017-10-26T16:44:24.385Z,13.38
2017-10-26T16:46:50.466Z,13.51
2017-10-26T16:49:16.547Z,13.45
2017-10-26T16:51:42.643Z,13.41
2017-10-26T16:54:08.743Z,13.29
2017-10-26T16:56:34.839Z,13.11
2017-10-26T16:59:00.978Z,12.94
2017-10-26T17:01:27.119Z,12.93
2017-10-26T17:03:53.324Z,12.85
2017-10-26T17:06:19.376Z,12.87
2017-10-26T17:08:45.481Z,12.79
2017-10-26T17:11:11.602Z,12.71
2017-10-26T17:13:37.651Z,12.64
2017-10-26T17:16:03.799Z,12.64
2017-10-26T17:18:29.842Z,12.57
2017-10-26T17:20:56.008Z,12.56
2017-10-26T17:23:22.102Z,12.53
2017-10-26T17:25:48.299Z,12.51
2017-10-26T17:28:14.423Z,12.74
2017-10-26T17:30:40.547Z,12.83
2017-10-26T17:33:06.621Z,12.67
2017-10-26T17:35:32.803Z,12.79
2017-10-26T17:37:58.937Z,12.05
2017-10-26T17:40:25.036Z,11.73
2017-10-26T17:42:51.131Z,12.15
2017-10-26T17:45:17.259Z,12.24
2017-10-26T17:47:43.409Z,12.27
2017-10-26T17:50:09.987Z,12.00
2017-10-26T17:52:36.115Z,12.09
2017-10-26T17:55:02.287Z,12.42
2017-10-26T17:57:28.441Z,12.46
2017-10-26T17:59:54.563Z,12.43
2017-10-26T18:02:20.750Z,12.37
2017-10-26T18:04:46.904Z,12.39
2017-10-26T18:07:13.049Z,12.40
2017-10-26T18:09:39.182Z,12.45
2017-10-26T18:12:05.291Z,12.36
2017-10-26T18:14:31.821Z,12.37
2017-10-26T18:16:58.002Z,12.40
2017-10-26T18:19:24.166Z,12.36
2017-10-26T18:21:50.346Z,12.24
2017-10-26T18:24:16.560Z,12.08
2017-10-26T18:26:42.704Z,12.20
2017-10-26T18:29:08.819Z,12.21
2017-10-26T18:31:34.891Z,12.21
2017-10-26T18:34:00.993Z,12.19
2017-10-26T18:36:27.116Z,12.15
2017-10-26T18:38:53.422Z,11.92
2017-10-26T18:41:19.527Z,11.56
2017-10-26T18:43:45.702Z,11.60
2017-10-26T18:46:11.890Z,11.60
2017-10-26T18:48:38.125Z,11.67
2017-10-26T18:51:04.272Z,11.63
2017-10-26T18:53:30.813Z,11.61
2017-10-26T18:55:56.936Z,11.45
2017-10-26T18:58:23.075Z,11.59
2017-10-26T19:00:49.326Z,11.75
2017-10-26T19:03:15.492Z,11.68
2017-10-26T19:05:41.677Z,11.42
2017-10-26T19:08:07.937Z,11.47
2017-10-26T19:10:34.162Z,11.57
2017-10-26T19:13:00.349Z,11.60
2017-10-26T19:15:26.546Z,11.75
2017-10-26T19:17:52.680Z,11.68
2017-10-26T19:20:18.849Z,11.64
2017-10-26T19:22:45.115Z,11.74
2017-10-26T19:25:11.267Z,11.63
2017-10-26T19:27:37.515Z,11.35
2017-10-26T19:30:04.036Z,11.15
2017-10-26T19:32:30.240Z,11.15
2017-10-26T19:34:56.512Z,11.25
2017-10-26T19:37:22.650Z,11.35
2017-10-26T19:39:48.721Z,11.24
2017-10-26T19:42:14.976Z,11.51
2017-10-26T19:44:46.145Z,11.67
2017-10-26T19:47:12.399Z,11.71
2017-10-26T19:49:38.644Z,11.70
2017-10-26T19:52:04.904Z,11.70
2017-10-26T19:54:31.072Z,11.61
2017-10-26T19:56:57.209Z,11.51
2017-10-26T19:59:23.374Z,11.32
2017-10-26T20:01:49.536Z,11.00
2017-10-26T20:04:15.615Z,11.04
2017-10-26T20:06:41.767Z,11.02
2017-10-26T20:09:07.867Z,11.02
2017-10-26T20:11:33.962Z,11.19
2017-10-26T20:14:00.047Z,11.22
2017-10-26T20:16:26.211Z,11.38
2017-10-26T20:18:52.303Z,11.48
2017-10-26T20:21:18.481Z,11.44
2017-10-26T20:23:44.614Z,11.46
2017-10-26T20:26:10.746Z,11.56
2017-10-26T20:28:36.879Z,11.42
2017-10-26T20:31:03.015Z,11.42
2017-10-26T20:33:29.131Z,11.46
2017-10-26T20:35:55.175Z,11.58
2017-10-26T20:38:21.275Z,11.67
2017-10-26T20:40:47.370Z,11.62
2017-10-26T20:43:13.451Z,11.43
2017-10-26T20:45:39.603Z,11.10
2017-10-26T20:48:05.767Z,10.81
2017-10-26T20:50:37.992Z,11.04
2017-10-26T20:53:10.205Z,11.26
2017-10-26T20:55:42.313Z,11.27
2017-10-26T20:58:14.571Z,11.25
2017-10-26T21:00:46.871Z,11.21
2017-10-26T21:03:18.938Z,11.19
2017-10-26T21:05:51.220Z,11.18
2017-10-26T21:08:17.344Z,10.76
2017-10-26T21:10:49.866Z,10.75
2017-10-26T21:13:21.947Z,10.88
2017-10-26T21:15:48.074Z,11.05
2017-10-26T21:18:14.168Z,11.24
2017-10-26T21:20:40.256Z,11.17
2017-10-26T21:23:06.366Z,11.17
2017-10-26T21:25:32.481Z,10.77
2017-10-26T21:27:58.583Z,11.02
2017-10-26T21:30:24.692Z,11.05
2017-10-26T21:32:50.779Z,10.98
2017-10-26T21:35:16.868Z,11.15
2017-10-26T21:37:42.920Z,11.16
2017-10-26T21:40:09.002Z,10.92
2017-10-26T21:42:35.087Z,10.78
2017-10-26T21:45:01.198Z,10.69
2017-10-26T21:47:27.287Z,10.52
2017-10-26T21:49:53.758Z,10.60
2017-10-26T21:52:19.822Z,10.54
2017-10-26T21:54:45.939Z,10.48
2017-10-26T21:57:12.052Z,10.51
2017-10-26T21:59:38.143Z,10.57
2017-10-26T22:02:04.282Z,10.60
2017-10-26T22:04:30.376Z,10.60
2017-10-26T22:06:56.485Z,10.60
2017-10-26T22:09:22.604Z,10.60
2017-10-26T22:11:48.876Z,10.55
2017-10-26T22:14:15.019Z,10.21
2017-10-26T22:16:41.127Z,10.27
2017-10-26T22:19:07.243Z,10.33
2017-10-26T22:21:33.339Z,10.55
2017-10-26T22:23:59.562Z,10.44
2017-10-26T22:26:26.108Z,10.46
2017-10-26T22:28:52.232Z,10.33
2017-10-26T22:31:18.410Z,10.29
2017-10-26T22:33:44.570Z,10.37
2017-10-26T22:36:10.691Z,10.53
2017-10-26T22:38:36.779Z,10.57
2017-10-26T22:41:02.931Z,10.28
2017-10-26T22:43:29.018Z,10.14
2017-10-26T22:45:55.136Z,10.37
2017-10-26T22:48:21.213Z,10.35
2017-10-26T22:50:47.398Z,10.31
2017-10-26T22:53:13.498Z,9.95
2017-10-26T22:55:39.599Z,10.05
2017-10-26T22:58:05.751Z,10.19
2017-10-26T23:00:31.938Z,10.01
2017-10-26T23:02:58.019Z,9.67
2017-10-26T23:05:24.338Z,9.54
2017-10-26T23:07:50.426Z,9.74
2017-10-26T23:10:16.515Z,9.80
2017-10-26T23:12:42.607Z,9.81
2017-10-26T23:15:08.707Z,9.81
2017-10-26T23:17:34.799Z,9.67
2017-10-26T23:20:00.884Z,9.75
2017-10-26T23:22:26.973Z,9.83
2017-10-26T23:24:53.122Z,9.89
2017-10-26T23:27:19.203Z,9.97
2017-10-26T23:29:45.255Z,10.05
2017-10-26T23:32:11.357Z,10.02
2017-10-26T23:34:37.451Z,9.83
2017-10-26T23:37:03.639Z,9.90
2017-10-26T23:39:29.759Z,9.95
2017-10-26T23:41:55.839Z,9.97
2017-10-26T23:44:21.952Z,9.87
2017-10-26T23:46:48.050Z,9.79
2017-10-26T23:49:14.200Z,9.86
2017-10-26T23:51:40.213Z,9.95
2017-10-26T23:54:06.325Z,9.84
2017-10-26T23:56:32.461Z,10.06
2017-10-26T23:58:58.599Z,10.28
